.
WxDataArchive / Data Records for 2014-08-22
2014-08-21 August 2014 2014-08-23

Data Records for Friday, 22 August 2014

Time	Temp	Chill	HIndex	Humid	Dewpt	 Wind 	HiWind	WindDir	Rain 	Barom
-----	----	-----	------	-----	-----	------	------	-------	-----	-----
00:00	70.3	70.3	70.3	93	68.2	0	1	90	0.00	29.938 
00:05	70.3	70.3	70.3	94	68.5	0	0	---	0.00	29.938 
00:10	70.3	70.3	70.3	94	68.5	0	0	---	0.00	29.938 
00:15	70.1	70.1	70.1	94	68.3	0	0	---	0.00	29.934 
00:20	70.3	70.3	70.3	94	68.5	0	0	---	0.00	29.934 
00:25	70.1	70.1	70.1	94	68.3	0	0	---	0.00	29.934 
00:30	69.9	69.9	69.9	94	68.1	0	0	---	0.00	29.943 
00:35	69.9	69.9	69.9	94	68.1	0	0	---	0.00	29.943 
00:40	69.8	69.8	69.8	94	68.0	0	0	---	0.00	29.943 
00:45	69.8	69.8	69.8	94	68.0	0	0	---	0.00	29.948 
00:50	69.6	69.6	69.6	94	67.8	0	0	---	0.00	29.948 
00:55	69.6	69.6	69.6	94	67.8	0	0	---	0.00	29.948 
01:00	69.4	69.4	69.4	94	67.6	0	0	---	0.00	29.951 
01:05	69.4	69.4	69.4	94	67.6	0	1	90	0.00	29.951 
01:10	69.3	69.3	69.3	94	67.5	0	0	---	0.00	29.951 
01:15	69.3	69.3	69.3	94	67.5	0	0	---	0.00	29.947 
01:20	69.1	69.1	69.1	94	67.3	0	1	90	0.00	29.947 
01:25	69.1	69.1	69.1	94	67.3	0	0	---	0.00	29.947 
01:30	69.1	69.1	69.1	94	67.3	0	0	---	0.00	29.933 
01:35	68.9	68.9	68.9	94	67.1	0	0	---	0.00	29.933 
01:40	68.9	68.9	68.9	94	67.1	0	0	---	0.00	29.933 
01:45	68.8	68.8	68.8	94	67.0	0	0	---	0.00	29.925 
01:50	68.8	68.8	68.8	94	67.0	0	0	---	0.00	29.925 
01:55	68.6	68.6	68.6	94	66.8	0	0	---	0.00	29.925 
02:00	68.6	68.6	68.6	94	66.8	0	0	---	0.00	29.917 
02:05	68.4	68.4	68.4	94	66.6	0	0	---	0.00	29.917 
02:10	68.4	68.4	68.4	94	66.6	0	0	---	0.00	29.917 
02:15	68.4	68.4	68.4	94	66.6	0	0	---	0.00	29.905 
02:20	68.3	68.3	68.3	94	66.5	0	0	---	0.00	29.905 
02:25	68.3	68.3	68.3	94	66.5	0	0	---	0.00	29.905 
02:30	68.3	68.3	68.3	94	66.5	0	0	---	0.00	29.904 
02:35	68.3	68.3	68.3	95	66.8	0	0	---	0.00	29.904 
02:40	68.4	68.4	68.4	95	66.9	0	0	---	0.00	29.904 
02:45	68.4	68.4	68.4	95	66.9	0	0	---	0.00	29.889 
02:50	68.4	68.4	68.4	95	66.9	0	0	---	0.00	29.889 
02:55	68.6	68.6	68.6	95	67.1	0	0	---	0.00	29.889 
03:00	68.6	68.6	68.6	95	67.1	0	0	---	0.00	29.891 
03:05	68.6	68.6	68.6	95	67.1	0	0	---	0.00	29.891 
03:10	68.8	68.8	68.8	95	67.3	0	0	---	0.00	29.891 
03:15	68.8	68.8	68.8	95	67.3	0	0	---	0.00	29.888 
03:20	68.8	68.8	68.8	95	67.3	0	0	---	0.00	29.888 
03:25	68.8	68.8	68.8	95	67.3	0	0	---	0.00	29.888 
03:30	68.8	68.8	68.8	95	67.3	0	0	---	0.00	29.890 
03:35	68.8	68.8	68.8	95	67.3	0	0	---	0.00	29.890 
03:40	68.9	68.9	68.9	95	67.4	0	0	---	0.00	29.890 
03:45	68.9	68.9	68.9	95	67.4	0	0	---	0.00	29.889 
03:50	68.9	68.9	68.9	95	67.4	0	0	---	0.00	29.889 
03:55	69.1	69.1	69.1	95	67.6	0	0	---	0.00	29.889 
04:00	69.1	69.1	69.1	95	67.6	0	0	---	0.00	29.894 
04:05	69.3	69.3	69.3	95	67.8	0	0	---	0.00	29.894 
04:10	69.3	69.3	69.3	95	67.8	0	0	---	0.00	29.894 
04:15	69.4	69.4	69.4	95	67.9	0	0	---	0.00	29.905 
04:20	69.4	69.4	69.4	96	68.2	0	0	---	0.00	29.905 
04:25	69.6	69.6	69.6	96	68.4	0	0	---	0.00	29.905 
04:30	69.8	69.8	69.8	96	68.6	0	1	90	0.00	29.903 
04:35	69.9	69.9	69.9	96	68.7	0	2	90	0.00	29.903 
04:40	70.1	70.1	70.1	96	68.9	0	1	90	0.01	29.903 
04:45	70.3	70.3	70.3	96	69.1	0	2	90	0.00	29.908 
04:50	70.4	70.4	70.4	96	69.2	0	3	90	0.00	29.908 
04:55	70.6	70.6	70.6	96	69.4	0	3	90	0.00	29.908 
05:00	70.8	70.8	70.8	96	69.6	0	1	90	0.00	29.914 
05:05	70.8	70.8	70.8	96	69.6	0	1	90	0.01	29.914 
05:10	70.8	70.8	70.8	96	69.6	0	2	90	0.00	29.914 
05:15	70.4	70.4	70.4	95	68.9	0	3	90	0.00	29.923 
05:20	70.3	70.3	70.3	95	68.8	0	1	90	0.00	29.923 
05:25	70.3	70.3	70.3	95	68.8	0	2	90	0.00	29.923 
05:30	70.3	70.3	70.3	95	68.8	0	1	90	0.01	29.924 
05:35	70.1	70.1	70.1	95	68.6	0	1	90	0.03	29.924 
05:40	69.9	69.9	69.9	95	68.4	0	1	90	0.01	29.924 
05:45	69.8	69.8	69.8	95	68.3	0	1	90	0.00	29.918 
05:50	69.9	69.9	69.9	96	68.7	0	1	90	0.01	29.918 
05:55	69.9	69.9	69.9	96	68.7	0	0	---	0.01	29.918 
06:00	69.9	69.9	69.9	96	68.7	0	1	90	0.00	29.898 
06:05	70.1	70.1	70.1	96	68.9	0	2	90	0.01	29.898 
06:10	70.1	70.1	70.1	96	68.9	0	1	90	0.00	29.898 
06:15	70.1	70.1	70.1	96	68.9	0	1	90	0.00	29.884 
06:20	69.9	69.9	69.9	96	68.7	0	1	90	0.00	29.884 
06:25	69.9	69.9	69.9	96	68.7	0	0	---	0.00	29.884 
06:30	69.9	69.9	69.9	96	68.7	0	0	---	0.00	29.902 
06:35	69.9	69.9	69.9	96	68.7	0	0	---	0.00	29.902 
06:40	69.9	69.9	69.9	96	68.7	0	0	---	0.00	29.902 
06:45	69.9	69.9	69.9	96	68.7	0	0	---	0.00	29.900 
06:50	69.9	69.9	69.9	96	68.7	0	0	---	0.00	29.900 
06:55	69.9	69.9	69.9	96	68.7	0	0	---	0.00	29.900 
07:00	69.9	69.9	69.9	96	68.7	0	0	---	0.00	29.912 
07:05	69.9	69.9	69.9	96	68.7	0	0	---	0.00	29.912 
07:10	69.9	69.9	69.9	96	68.7	0	0	---	0.00	29.912 
07:15	69.9	69.9	69.9	96	68.7	0	0	---	0.00	29.924 
07:20	70.1	70.1	70.1	96	68.9	0	0	---	0.00	29.924 
07:25	70.1	70.1	70.1	96	68.9	0	0	---	0.00	29.924 
07:30	70.1	70.1	70.1	96	68.9	0	1	90	0.00	29.924 
07:35	70.3	70.3	70.3	96	69.1	0	0	---	0.00	29.924 
07:40	70.3	70.3	70.3	96	69.1	0	0	---	0.00	29.924 
07:45	70.3	70.3	70.3	96	69.1	0	0	---	0.00	29.931 
07:50	70.3	70.3	70.3	96	69.1	0	1	90	0.00	29.931 
07:55	70.1	70.1	70.1	96	68.9	0	0	---	0.00	29.931 
08:00	70.1	70.1	70.1	96	68.9	0	0	---	0.00	29.931 
08:05	70.1	70.1	70.1	96	68.9	0	0	---	0.00	29.931 
08:10	70.3	70.3	70.3	96	69.1	0	0	---	0.00	29.931 
08:15	70.3	70.3	70.3	96	69.1	0	0	---	0.00	29.933 
08:20	70.4	70.4	70.4	96	69.2	0	0	---	0.00	29.933 
08:25	70.4	70.4	70.4	96	69.2	0	0	---	0.00	29.933 
08:30	70.6	70.6	70.6	96	69.4	0	0	---	0.00	29.935 
08:35	70.6	70.6	70.6	96	69.4	0	0	---	0.00	29.935 
08:40	70.8	70.8	70.8	96	69.6	0	0	---	0.00	29.935 
08:45	70.9	70.9	70.9	96	69.7	0	0	---	0.00	29.947 
08:50	70.9	70.9	70.9	96	69.7	0	0	---	0.00	29.947 
08:55	70.9	70.9	70.9	96	69.7	0	0	---	0.00	29.947 
09:00	70.9	70.9	70.9	96	69.7	0	0	---	0.00	29.940 
09:05	71.1	71.1	71.1	96	69.9	0	0	---	0.00	29.940 
09:10	71.1	71.1	71.1	96	69.9	0	0	---	0.00	29.940 
09:15	71.1	71.1	71.1	96	69.9	0	1	90	0.00	29.944 
09:20	71.3	71.3	71.3	96	70.1	0	1	90	0.00	29.944 
09:25	71.3	71.3	71.3	96	70.1	0	0	---	0.00	29.944 
09:30	71.5	71.5	71.5	96	70.3	0	1	90	0.00	29.934 
09:35	71.6	71.6	71.6	96	70.4	0	0	---	0.00	29.934 
09:40	71.8	71.8	71.8	96	70.6	0	1	90	0.00	29.934 
09:45	71.8	71.8	71.8	96	70.6	0	1	90	0.00	29.936 
09:50	72.0	72.0	72.0	96	70.8	0	1	90	0.00	29.936 
09:55	72.0	72.0	72.0	96	70.8	0	1	90	0.00	29.936 
10:00	72.1	72.1	72.1	96	70.9	0	1	90	0.00	29.938 
10:05	72.7	72.7	72.7	96	71.5	0	1	90	0.00	29.938 
10:10	72.7	72.7	72.7	96	71.5	0	1	90	0.00	29.938 
10:15	73.2	73.2	73.2	96	72.0	0	1	90	0.00	29.942 
10:20	73.5	73.5	73.5	96	72.3	0	2	90	0.00	29.942 
10:25	73.9	73.9	73.9	96	72.7	0	2	90	0.00	29.942 
10:30	74.2	74.2	74.2	95	72.7	0	1	90	0.00	29.931 
10:35	74.4	74.4	74.4	95	72.9	0	1	90	0.00	29.931 
10:40	74.4	74.4	74.4	94	72.6	0	1	90	0.00	29.931 
10:45	74.7	74.7	74.7	94	72.9	0	2	90	0.00	29.928 
10:50	75.4	75.4	74.4	93	73.2	0	2	90	0.00	29.928 
10:55	75.8	75.8	75.4	92	73.3	0	2	90	0.00	29.928 
11:00	76.0	76.0	75.9	91	73.2	0	1	90	0.00	29.928 
11:05	76.1	76.1	76.4	89	72.6	0	1	90	0.00	29.928 
11:10	76.3	76.3	76.8	88	72.5	0	2	90	0.00	29.928 
11:15	76.3	76.3	76.9	87	72.1	0	2	90	0.00	29.932 
11:20	76.7	76.7	77.8	85	71.8	0	2	90	0.00	29.932 
11:25	77.0	77.0	78.5	83	71.4	0	2	90	0.00	29.932 
11:30	77.2	77.2	78.9	82	71.3	0	3	90	0.00	29.927 
11:35	77.4	77.4	79.2	82	71.5	0	1	90	0.00	29.927 
11:40	77.6	77.6	79.6	81	71.3	0	2	90	0.00	29.927 
11:45	77.6	77.6	79.6	81	71.3	1	3	90	0.00	29.925 
11:50	77.7	77.7	79.8	81	71.4	0	2	90	0.00	29.925 
11:55	78.3	78.3	80.9	81	72.0	0	3	90	0.00	29.925 
12:00	78.6	78.6	81.4	79	71.5	1	3	270	0.00	29.914 
12:05	78.8	78.8	81.8	80	72.1	0	2	270	0.00	29.914 
12:10	79.2	79.2	82.4	78	71.7	1	2	270	0.00	29.914 
12:15	79.4	79.4	82.8	78	71.9	1	3	270	0.00	29.913 
12:20	79.6	79.6	83.1	77	71.7	0	2	270	0.00	29.913 
12:25	79.4	79.4	82.6	76	71.2	1	3	270	0.00	29.913 
12:30	79.6	79.6	83.2	78	72.1	1	3	270	0.00	29.915 
12:35	79.6	79.6	83.1	77	71.7	1	3	270	0.00	29.915 
12:40	79.8	79.8	83.3	76	71.5	1	4	270	0.00	29.915 
12:45	79.9	79.9	83.6	77	72.0	1	3	270	0.00	29.914 
12:50	79.9	79.9	83.5	76	71.6	1	4	270	0.00	29.914 
12:55	80.3	80.3	84.4	77	72.4	1	4	270	0.00	29.914 
13:00	80.7	80.7	84.9	75	72.0	1	3	270	0.00	29.916 
13:05	81.2	81.2	85.9	75	72.5	1	4	270	0.00	29.916 
13:10	81.6	81.6	86.3	73	72.1	0	3	315	0.00	29.916 
13:15	81.6	81.6	86.3	73	72.1	2	4	315	0.00	29.915 
13:20	81.6	81.6	86.1	72	71.7	2	6	315	0.00	29.915 
13:25	81.2	81.2	85.5	73	71.7	2	5	292	0.00	29.915 
13:30	80.9	80.9	84.8	72	71.0	2	4	270	0.00	29.911 
13:35	80.9	80.9	85.3	75	72.2	0	2	270	0.00	29.911 
13:40	80.9	80.9	85.1	74	71.8	1	2	270	0.00	29.911 
13:45	81.1	81.1	85.7	75	72.4	0	2	270	0.00	29.910 
13:50	81.1	81.1	85.5	74	72.0	1	2	270	0.00	29.910 
13:55	81.1	81.1	85.5	74	72.0	1	3	270	0.00	29.910 
14:00	80.7	80.7	84.7	74	71.6	0	0	---	0.00	29.909 
14:05	80.5	80.5	84.4	74	71.4	0	0	---	0.00	29.909 
14:10	80.5	80.5	84.8	77	72.6	0	0	---	0.00	29.909 
14:15	80.7	80.7	85.1	76	72.4	0	3	270	0.00	29.911 
14:20	80.5	80.5	84.5	75	71.8	0	2	270	0.00	29.911 
14:25	80.5	80.5	84.7	76	72.2	0	2	270	0.00	29.911 
14:30	80.5	80.5	84.5	75	71.8	0	2	270	0.00	29.907 
14:35	80.7	80.7	85.1	76	72.4	0	2	270	0.00	29.907 
14:40	80.7	80.7	84.9	75	72.0	0	1	270	0.00	29.907 
14:45	80.9	80.9	85.5	76	72.6	0	1	270	0.00	29.910 
14:50	80.9	80.9	85.3	75	72.2	0	2	270	0.00	29.910 
14:55	80.9	80.9	85.3	75	72.2	0	2	270	0.00	29.910 
15:00	80.9	80.9	85.3	75	72.2	0	2	270	0.00	29.914 
15:05	80.9	80.9	85.3	75	72.2	0	1	270	0.00	29.914 
15:10	80.9	80.9	85.3	75	72.2	0	2	270	0.00	29.914 
15:15	80.7	80.7	84.9	75	72.0	0	3	270	0.00	29.916 
15:20	80.7	80.7	84.7	74	71.6	1	3	270	0.00	29.916 
15:25	80.5	80.5	84.4	74	71.4	1	3	270	0.00	29.916 
15:30	80.5	80.5	84.5	75	71.8	0	2	270	0.00	29.913 
15:35	80.7	80.7	84.9	75	72.0	0	2	270	0.00	29.913 
15:40	81.2	81.2	86.1	76	72.9	0	2	270	0.00	29.913 
15:45	81.4	81.4	85.9	73	71.9	1	2	270	0.00	29.909 
15:50	81.6	81.6	86.3	73	72.1	1	4	270	0.00	29.909 
15:55	81.6	81.6	86.3	73	72.1	0	2	270	0.00	29.909 
16:00	81.8	81.8	86.7	73	72.3	0	2	270	0.00	29.900 
16:05	81.8	81.8	86.7	73	72.3	0	1	270	0.00	29.900 
16:10	82.0	82.0	87.1	73	72.5	0	1	270	0.00	29.900 
16:15	82.0	82.0	87.1	73	72.5	0	2	270	0.00	29.895 
16:20	82.2	82.2	87.3	72	72.2	0	2	270	0.00	29.895 
16:25	82.4	82.4	87.7	72	72.4	1	2	270	0.00	29.895 
16:30	82.4	82.4	87.7	72	72.4	0	1	270	0.00	29.895 
16:35	82.4	82.4	87.4	71	72.0	0	3	270	0.00	29.895 
16:40	82.6	82.6	87.6	70	71.8	1	4	270	0.00	29.895 
16:45	82.6	82.6	87.6	70	71.8	1	2	270	0.00	29.897 
16:50	82.8	82.8	88.0	70	72.0	1	3	270	0.00	29.897 
16:55	83.0	83.0	88.1	69	71.8	1	2	270	0.00	29.897 
17:00	83.2	83.2	88.5	69	71.9	0	3	270	0.00	29.901 
17:05	83.4	83.4	88.9	69	72.1	0	2	270	0.00	29.901 
17:10	83.2	83.2	88.2	68	71.5	1	3	292	0.00	29.901 
17:15	83.2	83.2	88.2	68	71.5	1	2	292	0.00	29.900 
17:20	83.4	83.4	88.9	69	72.1	1	3	292	0.00	29.900 
17:25	83.6	83.6	89.3	69	72.3	0	4	292	0.00	29.900 
17:30	84.0	84.0	89.8	68	72.3	0	3	292	0.00	29.898 
17:35	84.5	84.5	90.9	68	72.7	1	3	292	0.00	29.898 
17:40	84.7	84.7	91.0	67	72.5	0	1	292	0.00	29.898 
17:45	84.7	84.7	91.0	67	72.5	0	2	292	0.00	29.900 
17:50	84.5	84.5	90.5	67	72.3	0	2	292	0.00	29.900 
17:55	84.1	84.1	89.7	67	71.9	0	1	292	0.00	29.900 
18:00	84.0	84.0	89.8	68	72.3	0	1	292	0.00	29.894 
18:05	84.0	84.0	89.8	68	72.3	0	1	292	0.00	29.894 
18:10	84.0	84.0	89.8	68	72.3	0	2	292	0.00	29.894 
18:15	83.8	83.8	89.4	68	72.1	0	0	---	0.00	29.895 
18:20	83.6	83.6	89.0	68	71.9	0	4	292	0.00	29.895 
18:25	83.4	83.4	88.9	69	72.1	0	1	292	0.00	29.895 
18:30	83.4	83.4	89.2	70	72.6	0	0	---	0.00	29.898 
18:35	83.2	83.2	88.8	70	72.4	0	1	292	0.00	29.898 
18:40	83.2	83.2	88.8	70	72.4	0	1	292	0.00	29.898 
18:45	83.2	83.2	88.8	70	72.4	0	1	292	0.00	29.898 
18:50	83.0	83.0	88.4	70	72.2	0	1	292	0.00	29.898 
18:55	82.8	82.8	88.0	70	72.0	0	1	292	0.00	29.898 
19:00	82.8	82.8	88.0	70	72.0	0	1	292	0.00	29.902 
19:05	82.6	82.6	87.8	71	72.2	0	1	292	0.00	29.902 
19:10	82.4	82.4	87.7	72	72.4	0	1	292	0.00	29.902 
19:15	82.4	82.4	87.7	72	72.4	0	0	---	0.00	29.904 
19:20	82.4	82.4	87.4	71	72.0	0	1	292	0.00	29.904 
19:25	82.2	82.2	87.3	72	72.2	0	0	---	0.00	29.904 
19:30	82.2	82.2	87.3	72	72.2	0	1	292	0.00	29.908 
19:35	82.2	82.2	87.5	73	72.7	0	1	292	0.00	29.908 
19:40	82.2	82.2	87.5	73	72.7	0	1	292	0.00	29.908 
19:45	82.0	82.0	87.1	73	72.5	0	1	292	0.00	29.904 
19:50	81.8	81.8	86.7	73	72.3	0	1	292	0.00	29.904 
19:55	81.8	81.8	86.7	73	72.3	0	1	292	0.00	29.904 
20:00	81.6	81.6	86.3	73	72.1	0	0	---	0.00	29.903 
20:05	81.6	81.6	86.5	74	72.5	0	0	---	0.00	29.903 
20:10	81.4	81.4	86.1	74	72.3	0	0	---	0.00	29.903 
20:15	81.2	81.2	85.9	75	72.5	0	1	292	0.00	29.907 
20:20	81.1	81.1	85.9	76	72.8	0	3	292	0.00	29.907 
20:25	80.9	80.9	85.7	77	73.0	0	2	315	0.00	29.907 
20:30	80.5	80.5	85.0	78	73.0	0	1	315	0.00	29.910 
20:35	80.1	80.1	84.3	79	73.0	0	2	315	0.00	29.910 
20:40	79.8	79.8	83.8	80	73.1	1	3	135	0.00	29.910 
20:45	79.6	79.6	83.5	81	73.2	0	1	135	0.00	29.911 
20:50	79.4	79.4	83.1	81	73.0	0	2	135	0.00	29.911 
20:55	79.2	79.2	82.7	81	72.8	0	2	135	0.00	29.911 
21:00	79.0	79.0	82.3	81	72.7	0	1	135	0.00	29.915 
21:05	79.0	79.0	82.3	82	73.0	0	0	---	0.00	29.915 
21:10	78.8	78.8	81.9	82	72.8	0	1	135	0.00	29.915 
21:15	78.8	78.8	82.0	83	73.2	0	1	135	0.00	29.921 
21:20	78.6	78.6	81.6	83	73.0	0	0	---	0.00	29.921 
21:25	78.6	78.6	81.6	83	73.0	0	0	---	0.00	29.921 
21:30	78.5	78.5	81.4	83	72.9	0	0	---	0.00	29.927 
21:35	78.3	78.3	81.0	84	73.1	0	0	---	0.00	29.927 
21:40	78.1	78.1	80.6	84	72.9	0	0	---	0.00	29.927 
21:45	78.1	78.1	80.6	84	72.9	0	0	---	0.00	29.930 
21:50	77.9	77.9	80.2	84	72.7	0	0	---	0.00	29.930 
21:55	77.9	77.9	80.2	84	72.7	0	0	---	0.00	29.930 
22:00	77.7	77.7	79.8	85	72.8	0	0	---	0.00	29.937 
22:05	77.7	77.7	79.8	85	72.8	0	0	---	0.00	29.937 
22:10	77.7	77.7	79.8	85	72.8	0	0	---	0.00	29.937 
22:15	77.7	77.7	79.8	85	72.8	0	1	135	0.00	29.939 
22:20	77.7	77.7	79.8	85	72.8	0	1	135	0.00	29.939 
22:25	77.7	77.7	79.8	85	72.8	0	0	---	0.00	29.939 
22:30	77.7	77.7	79.8	85	72.8	0	1	135	0.00	29.939 
22:35	77.7	77.7	79.8	85	72.8	0	1	135	0.00	29.939 
22:40	77.7	77.7	79.8	85	72.8	0	1	135	0.00	29.939 
22:45	77.7	77.7	79.8	86	73.2	0	1	135	0.00	29.938 
22:50	77.6	77.6	79.6	86	73.1	0	0	---	0.00	29.938 
22:55	77.6	77.6	79.6	86	73.1	0	1	135	0.00	29.938 
23:00	77.6	77.6	79.6	86	73.1	0	0	---	0.00	29.942 
23:05	77.4	77.4	79.2	86	72.9	0	0	---	0.00	29.942 
23:10	77.4	77.4	79.2	86	72.9	0	0	---	0.00	29.942 
23:15	77.2	77.2	78.7	87	73.0	0	0	---	0.00	29.940 
23:20	77.2	77.2	78.7	87	73.0	0	0	---	0.00	29.940 
23:25	77.0	77.0	78.3	87	72.8	0	0	---	0.00	29.940 
23:30	77.0	77.0	78.3	87	72.8	0	0	---	0.00	29.943 
23:35	76.8	76.8	77.9	88	73.0	0	0	---	0.00	29.943 
23:40	76.8	76.8	77.9	88	73.0	0	1	135	0.00	29.943 
23:45	76.7	76.7	77.7	88	72.9	0	0	---	0.00	29.949 
23:50	76.7	76.7	77.7	88	72.9	0	1	135	0.00	29.949 
23:55	76.7	76.7	77.7	88	72.9	0	1	135	0.00	29.949 

CoCoRaHS
IN-AL-39
A2 Web Hosting
Creative Commons License
GoDaddy
search engine by freefind advanced

loaded 2018-11-15 18:37:43 • last modified 2010-11-18 10:43:29
Privacy PolicyDisclaimer
• wx.awcolley.com is powered by PmWiki v.2002016 •
• all content (unless otherwise noted) © 2018 A W Colley